sensor_id;sensor_type;location;lat;lon;timestamp;P1;P2;P0
64315;PMS5003;50652;51.482;-0.580;2023-06-22T00:00:17;12;12;
64315;PMS5003;50652;51.482;-0.580;2023-06-22T00:02:45;14;14;
64315;PMS5003;50652;51.482;-0.580;2023-06-22T00:05:11;17;16;
64315;PMS5003;50652;51.482;-0.580;2023-06-22T00:07:39;17;14;
64315;PMS5003;50652;51.482;-0.580;2023-06-22T00:10:06;15;14;
64315;PMS5003;50652;51.482;-0.580;2023-06-22T00:12:34;15;15;
64315;PMS5003;50652;51.482;-0.580;2023-06-22T00:15:02;18;17;
64315;PMS5003;50652;51.482;-0.580;2023-06-22T00:17:30;16;16;
64315;PMS5003;50652;51.482;-0.580;2023-06-22T00:19:57;19;17;
64315;PMS5003;50652;51.482;-0.580;2023-06-22T00:22:24;16;15;
64315;PMS5003;50652;51.482;-0.580;2023-06-22T00:24:51;18;15;
64315;PMS5003;50652;51.482;-0.580;2023-06-22T00:27:17;18;14;
64315;PMS5003;50652;51.482;-0.580;2023-06-22T00:29:45;21;18;
64315;PMS5003;50652;51.482;-0.580;2023-06-22T00:32:12;16;16;
64315;PMS5003;50652;51.482;-0.580;2023-06-22T00:34:40;23;23;
64315;PMS5003;50652;51.482;-0.580;2023-06-22T00:37:07;17;16;
64315;PMS5003;50652;51.482;-0.580;2023-06-22T00:39:34;20;19;
64315;PMS5003;50652;51.482;-0.580;2023-06-22T00:42:03;15;15;
64315;PMS5003;50652;51.482;-0.580;2023-06-22T00:44:31;21;19;
64315;PMS5003;50652;51.482;-0.580;2023-06-22T00:46:58;15;14;
64315;PMS5003;50652;51.482;-0.580;2023-06-22T00:49:25;17;15;
64315;PMS5003;50652;51.482;-0.580;2023-06-22T00:51:52;19;16;
64315;PMS5003;50652;51.482;-0.580;2023-06-22T00:54:20;16;16;
64315;PMS5003;50652;51.482;-0.580;2023-06-22T00:56:47;16;15;
64315;PMS5003;50652;51.482;-0.580;2023-06-22T00:59:15;20;19;
64315;PMS5003;50652;51.482;-0.580;2023-06-22T01:01:43;18;18;
64315;PMS5003;50652;51.482;-0.580;2023-06-22T01:04:11;20;16;
64315;PMS5003;50652;51.482;-0.580;2023-06-22T01:06:38;22;18;
64315;PMS5003;50652;51.482;-0.580;2023-06-22T01:09:22;19;17;
64315;PMS5003;50652;51.482;-0.580;2023-06-22T01:11:57;17;13;
64315;PMS5003;50652;51.482;-0.580;2023-06-22T01:14:30;16;16;
64315;PMS5003;50652;51.482;-0.580;2023-06-22T01:17:07;16;15;
64315;PMS5003;50652;51.482;-0.580;2023-06-22T01:19:37;16;16;
64315;PMS5003;50652;51.482;-0.580;2023-06-22T01:22:13;19;19;
64315;PMS5003;50652;51.482;-0.580;2023-06-22T01:24:47;21;17;
64315;PMS5003;50652;51.482;-0.580;2023-06-22T01:27:26;20;17;
64315;PMS5003;50652;51.482;-0.580;2023-06-22T01:30:03;20;17;
64315;PMS5003;50652;51.482;-0.580;2023-06-22T01:32:33;24;22;
64315;PMS5003;50652;51.482;-0.580;2023-06-22T01:35:04;27;25;
64315;PMS5003;50652;51.482;-0.580;2023-06-22T01:37:33;19;19;
64315;PMS5003;50652;51.482;-0.580;2023-06-22T01:40:04;20;17;
64315;PMS5003;50652;51.482;-0.580;2023-06-22T01:42:33;22;17;
64315;PMS5003;50652;51.482;-0.580;2023-06-22T01:45:03;21;21;
64315;PMS5003;50652;51.482;-0.580;2023-06-22T01:47:33;17;17;
64315;PMS5003;50652;51.482;-0.580;2023-06-22T01:50:04;21;18;
64315;PMS5003;50652;51.482;-0.580;2023-06-22T01:52:32;21;21;
64315;PMS5003;50652;51.482;-0.580;2023-06-22T01:54:58;18;17;
64315;PMS5003;50652;51.482;-0.580;2023-06-22T01:57:26;17;17;
64315;PMS5003;50652;51.482;-0.580;2023-06-22T01:59:56;17;17;
64315;PMS5003;50652;51.482;-0.580;2023-06-22T02:02:27;19;17;
64315;PMS5003;50652;51.482;-0.580;2023-06-22T02:04:59;20;18;
64315;PMS5003;50652;51.482;-0.580;2023-06-22T02:07:32;17;17;
64315;PMS5003;50652;51.482;-0.580;2023-06-22T02:10:06;20;19;
64315;PMS5003;50652;51.482;-0.580;2023-06-22T02:12:36;25;18;
64315;PMS5003;50652;51.482;-0.580;2023-06-22T02:15:05;21;17;
64315;PMS5003;50652;51.482;-0.580;2023-06-22T02:17:33;24;21;
64315;PMS5003;50652;51.482;-0.580;2023-06-22T02:20:04;19;14;
64315;PMS5003;50652;51.482;-0.580;2023-06-22T02:22:32;25;21;
64315;PMS5003;50652;51.482;-0.580;2023-06-22T02:25:00;20;18;
64315;PMS5003;50652;51.482;-0.580;2023-06-22T02:27:30;25;18;
64315;PMS5003;50652;51.482;-0.580;2023-06-22T02:29:58;19;17;
64315;PMS5003;50652;51.482;-0.580;2023-06-22T02:32:25;23;19;
64315;PMS5003;50652;51.482;-0.580;2023-06-22T02:34:53;19;18;
64315;PMS5003;50652;51.482;-0.580;2023-06-22T02:37:20;23;20;
64315;PMS5003;50652;51.482;-0.580;2023-06-22T02:39:47;16;16;
64315;PMS5003;50652;51.482;-0.580;2023-06-22T02:42:13;16;16;
64315;PMS5003;50652;51.482;-0.580;2023-06-22T02:44:41;21;18;
64315;PMS5003;50652;51.482;-0.580;2023-06-22T02:47:08;22;19;
64315;PMS5003;50652;51.482;-0.580;2023-06-22T02:49:35;19;19;
64315;PMS5003;50652;51.482;-0.580;2023-06-22T02:52:03;21;20;
64315;PMS5003;50652;51.482;-0.580;2023-06-22T02:54:31;25;24;
64315;PMS5003;50652;51.482;-0.580;2023-06-22T02:56:58;20;20;
64315;PMS5003;50652;51.482;-0.580;2023-06-22T02:59:24;21;20;
64315;PMS5003;50652;51.482;-0.580;2023-06-22T03:01:51;20;18;
64315;PMS5003;50652;51.482;-0.580;2023-06-22T03:04:19;24;17;
64315;PMS5003;50652;51.482;-0.580;2023-06-22T03:06:46;25;20;
64315;PMS5003;50652;51.482;-0.580;2023-06-22T03:09:13;22;19;
64315;PMS5003;50652;51.482;-0.580;2023-06-22T03:11:40;20;19;
64315;PMS5003;50652;51.482;-0.580;2023-06-22T03:14:08;17;16;
64315;PMS5003;50652;51.482;-0.580;2023-06-22T03:16:35;23;18;
64315;PMS5003;50652;51.482;-0.580;2023-06-22T03:19:02;16;16;
64315;PMS5003;50652;51.482;-0.580;2023-06-22T03:21:28;21;20;
64315;PMS5003;50652;51.482;-0.580;2023-06-22T03:23:55;23;23;
64315;PMS5003;50652;51.482;-0.580;2023-06-22T03:26:22;24;22;
64315;PMS5003;50652;51.482;-0.580;2023-06-22T03:28:49;18;17;
64315;PMS5003;50652;51.482;-0.580;2023-06-22T03:31:16;21;18;
64315;PMS5003;50652;51.482;-0.580;2023-06-22T03:33:44;19;19;
64315;PMS5003;50652;51.482;-0.580;2023-06-22T03:36:10;20;19;
64315;PMS5003;50652;51.482;-0.580;2023-06-22T03:38:38;25;20;
64315;PMS5003;50652;51.482;-0.580;2023-06-22T03:41:05;23;20;
64315;PMS5003;50652;51.482;-0.580;2023-06-22T03:43:31;19;14;
64315;PMS5003;50652;51.482;-0.580;2023-06-22T03:45:58;23;22;
64315;PMS5003;50652;51.482;-0.580;2023-06-22T03:48:26;14;12;
64315;PMS5003;50652;51.482;-0.580;2023-06-22T03:50:53;25;24;
64315;PMS5003;50652;51.482;-0.580;2023-06-22T03:53:20;24;19;
64315;PMS5003;50652;51.482;-0.580;2023-06-22T03:55:48;13;13;
64315;PMS5003;50652;51.482;-0.580;2023-06-22T03:58:16;23;19;
64315;PMS5003;50652;51.482;-0.580;2023-06-22T04:00:43;22;16;
64315;PMS5003;50652;51.482;-0.580;2023-06-22T04:03:11;28;21;
64315;PMS5003;50652;51.482;-0.580;2023-06-22T04:05:38;24;23;
64315;PMS5003;50652;51.482;-0.580;2023-06-22T04:08:05;18;15;
64315;PMS5003;50652;51.482;-0.580;2023-06-22T04:10:32;21;21;
64315;PMS5003;50652;51.482;-0.580;2023-06-22T04:12:59;21;19;
64315;PMS5003;50652;51.482;-0.580;2023-06-22T04:15:27;23;19;
64315;PMS5003;50652;51.482;-0.580;2023-06-22T04:17:54;20;20;
64315;PMS5003;50652;51.482;-0.580;2023-06-22T04:20:22;23;21;
64315;PMS5003;50652;51.482;-0.580;2023-06-22T04:22:49;24;23;
64315;PMS5003;50652;51.482;-0.580;2023-06-22T04:25:16;19;19;
64315;PMS5003;50652;51.482;-0.580;2023-06-22T04:27:43;24;23;
64315;PMS5003;50652;51.482;-0.580;2023-06-22T04:30:10;19;19;
64315;PMS5003;50652;51.482;-0.580;2023-06-22T04:32:37;16;15;
64315;PMS5003;50652;51.482;-0.580;2023-06-22T04:35:05;19;16;
64315;PMS5003;50652;51.482;-0.580;2023-06-22T04:37:33;20;19;
64315;PMS5003;50652;51.482;-0.580;2023-06-22T04:40:00;25;23;
64315;PMS5003;50652;51.482;-0.580;2023-06-22T04:42:29;19;17;
64315;PMS5003;50652;51.482;-0.580;2023-06-22T04:44:56;20;19;
64315;PMS5003;50652;51.482;-0.580;2023-06-22T04:47:23;24;22;
64315;PMS5003;50652;51.482;-0.580;2023-06-22T04:49:50;24;20;
64315;PMS5003;50652;51.482;-0.580;2023-06-22T04:52:17;24;19;
64315;PMS5003;50652;51.482;-0.580;2023-06-22T04:54:44;20;20;
64315;PMS5003;50652;51.482;-0.580;2023-06-22T04:57:11;23;19;
64315;PMS5003;50652;51.482;-0.580;2023-06-22T04:59:38;25;19;
64315;PMS5003;50652;51.482;-0.580;2023-06-22T05:02:05;21;21;
64315;PMS5003;50652;51.482;-0.580;2023-06-22T05:04:33;23;18;
64315;PMS5003;50652;51.482;-0.580;2023-06-22T05:07:01;19;18;
64315;PMS5003;50652;51.482;-0.580;2023-06-22T05:09:29;23;17;
64315;PMS5003;50652;51.482;-0.580;2023-06-22T05:11:57;26;21;
64315;PMS5003;50652;51.482;-0.580;2023-06-22T05:14:24;22;19;
64315;PMS5003;50652;51.482;-0.580;2023-06-22T05:16:51;25;22;
64315;PMS5003;50652;51.482;-0.580;2023-06-22T05:19:18;18;16;
64315;PMS5003;50652;51.482;-0.580;2023-06-22T05:21:45;19;19;
64315;PMS5003;50652;51.482;-0.580;2023-06-22T05:24:13;23;22;
64315;PMS5003;50652;51.482;-0.580;2023-06-22T05:26:40;18;16;
64315;PMS5003;50652;51.482;-0.580;2023-06-22T05:29:06;23;20;
64315;PMS5003;50652;51.482;-0.580;2023-06-22T05:31:34;21;19;
64315;PMS5003;50652;51.482;-0.580;2023-06-22T05:34:02;20;17;
64315;PMS5003;50652;51.482;-0.580;2023-06-22T05:36:28;20;17;
64315;PMS5003;50652;51.482;-0.580;2023-06-22T05:38:56;19;16;
64315;PMS5003;50652;51.482;-0.580;2023-06-22T05:41:23;20;19;
64315;PMS5003;50652;51.482;-0.580;2023-06-22T05:43:51;23;17;
64315;PMS5003;50652;51.482;-0.580;2023-06-22T05:46:18;21;18;
64315;PMS5003;50652;51.482;-0.580;2023-06-22T05:48:46;24;19;
64315;PMS5003;50652;51.482;-0.580;2023-06-22T05:51:13;17;17;
64315;PMS5003;50652;51.482;-0.580;2023-06-22T05:53:40;24;20;
64315;PMS5003;50652;51.482;-0.580;2023-06-22T05:56:07;19;17;
64315;PMS5003;50652;51.482;-0.580;2023-06-22T05:58:35;23;22;
64315;PMS5003;50652;51.482;-0.580;2023-06-22T06:01:02;18;15;
64315;PMS5003;50652;51.482;-0.580;2023-06-22T06:03:29;25;23;
64315;PMS5003;50652;51.482;-0.580;2023-06-22T06:05:56;23;20;
64315;PMS5003;50652;51.482;-0.580;2023-06-22T06:08:23;18;16;
64315;PMS5003;50652;51.482;-0.580;2023-06-22T06:10:49;23;20;
64315;PMS5003;50652;51.482;-0.580;2023-06-22T06:13:17;22;22;
64315;PMS5003;50652;51.482;-0.580;2023-06-22T06:15:44;18;16;
64315;PMS5003;50652;51.482;-0.580;2023-06-22T06:18:10;18;15;
64315;PMS5003;50652;51.482;-0.580;2023-06-22T06:20:38;21;21;
64315;PMS5003;50652;51.482;-0.580;2023-06-22T06:23:05;24;24;
64315;PMS5003;50652;51.482;-0.580;2023-06-22T06:25:31;23;21;
64315;PMS5003;50652;51.482;-0.580;2023-06-22T06:27:59;25;24;
64315;PMS5003;50652;51.482;-0.580;2023-06-22T06:30:26;25;21;
64315;PMS5003;50652;51.482;-0.580;2023-06-22T06:32:53;21;21;
64315;PMS5003;50652;51.482;-0.580;2023-06-22T06:35:21;21;20;
64315;PMS5003;50652;51.482;-0.580;2023-06-22T06:37:49;25;18;
64315;PMS5003;50652;51.482;-0.580;2023-06-22T06:40:17;20;20;
64315;PMS5003;50652;51.482;-0.580;2023-06-22T06:42:46;22;21;
64315;PMS5003;50652;51.482;-0.580;2023-06-22T06:45:15;22;21;
64315;PMS5003;50652;51.482;-0.580;2023-06-22T06:47:45;25;18;
64315;PMS5003;50652;51.482;-0.580;2023-06-22T06:50:13;20;19;
64315;PMS5003;50652;51.482;-0.580;2023-06-22T06:52:40;20;17;
64315;PMS5003;50652;51.482;-0.580;2023-06-22T06:55:08;22;17;
64315;PMS5003;50652;51.482;-0.580;2023-06-22T06:57:35;22;20;
64315;PMS5003;50652;51.482;-0.580;2023-06-22T07:00:03;21;19;
64315;PMS5003;50652;51.482;-0.580;2023-06-22T07:02:31;20;18;
64315;PMS5003;50652;51.482;-0.580;2023-06-22T07:04:59;20;20;
64315;PMS5003;50652;51.482;-0.580;2023-06-22T07:07:26;23;20;
64315;PMS5003;50652;51.482;-0.580;2023-06-22T07:09:53;18;18;
64315;PMS5003;50652;51.482;-0.580;2023-06-22T07:12:20;17;17;
64315;PMS5003;50652;51.482;-0.580;2023-06-22T07:14:47;22;18;
64315;PMS5003;50652;51.482;-0.580;2023-06-22T07:17:15;18;17;
64315;PMS5003;50652;51.482;-0.580;2023-06-22T07:19:42;28;22;
64315;PMS5003;50652;51.482;-0.580;2023-06-22T07:22:10;16;16;
64315;PMS5003;50652;51.482;-0.580;2023-06-22T07:24:37;15;15;
64315;PMS5003;50652;51.482;-0.580;2023-06-22T07:27:04;22;20;
64315;PMS5003;50652;51.482;-0.580;2023-06-22T07:29:31;23;20;
64315;PMS5003;50652;51.482;-0.580;2023-06-22T07:31:59;22;19;
64315;PMS5003;50652;51.482;-0.580;2023-06-22T07:34:26;21;20;
64315;PMS5003;50652;51.482;-0.580;2023-06-22T07:36:53;24;20;
64315;PMS5003;50652;51.482;-0.580;2023-06-22T07:39:20;16;15;
64315;PMS5003;50652;51.482;-0.580;2023-06-22T07:41:47;22;20;
64315;PMS5003;50652;51.482;-0.580;2023-06-22T07:44:14;17;17;
64315;PMS5003;50652;51.482;-0.580;2023-06-22T07:46:41;20;19;
64315;PMS5003;50652;51.482;-0.580;2023-06-22T07:49:09;18;17;
64315;PMS5003;50652;51.482;-0.580;2023-06-22T07:51:36;22;20;
64315;PMS5003;50652;51.482;-0.580;2023-06-22T07:54:03;16;15;
64315;PMS5003;50652;51.482;-0.580;2023-06-22T07:56:30;19;15;
64315;PMS5003;50652;51.482;-0.580;2023-06-22T07:58:57;18;16;
64315;PMS5003;50652;51.482;-0.580;2023-06-22T08:01:24;19;18;
64315;PMS5003;50652;51.482;-0.580;2023-06-22T08:03:51;15;14;
64315;PMS5003;50652;51.482;-0.580;2023-06-22T08:06:18;10;10;
64315;PMS5003;50652;51.482;-0.580;2023-06-22T08:08:45;17;13;
64315;PMS5003;50652;51.482;-0.580;2023-06-22T08:11:12;18;17;
64315;PMS5003;50652;51.482;-0.580;2023-06-22T08:13:39;15;15;
64315;PMS5003;50652;51.482;-0.580;2023-06-22T08:16:06;15;13;
64315;PMS5003;50652;51.482;-0.580;2023-06-22T08:18:34;18;17;
64315;PMS5003;50652;51.482;-0.580;2023-06-22T08:21:01;16;13;
64315;PMS5003;50652;51.482;-0.580;2023-06-22T08:23:28;18;14;
64315;PMS5003;50652;51.482;-0.580;2023-06-22T08:25:55;15;14;
64315;PMS5003;50652;51.482;-0.580;2023-06-22T08:28:22;16;13;
64315;PMS5003;50652;51.482;-0.580;2023-06-22T08:30:50;12;12;
64315;PMS5003;50652;51.482;-0.580;2023-06-22T08:33:23;18;15;
64315;PMS5003;50652;51.482;-0.580;2023-06-22T08:35:51;16;13;
64315;PMS5003;50652;51.482;-0.580;2023-06-22T08:38:18;19;16;
64315;PMS5003;50652;51.482;-0.580;2023-06-22T08:40:46;12;11;
64315;PMS5003;50652;51.482;-0.580;2023-06-22T08:43:13;15;14;
64315;PMS5003;50652;51.482;-0.580;2023-06-22T08:45:41;14;14;
64315;PMS5003;50652;51.482;-0.580;2023-06-22T08:48:08;15;15;
64315;PMS5003;50652;51.482;-0.580;2023-06-22T08:50:35;13;13;
64315;PMS5003;50652;51.482;-0.580;2023-06-22T08:53:02;16;14;
64315;PMS5003;50652;51.482;-0.580;2023-06-22T08:55:29;13;13;
64315;PMS5003;50652;51.482;-0.580;2023-06-22T08:57:56;11;11;
64315;PMS5003;50652;51.482;-0.580;2023-06-22T09:00:23;10;9;
64315;PMS5003;50652;51.482;-0.580;2023-06-22T09:02:50;7;7;
64315;PMS5003;50652;51.482;-0.580;2023-06-22T09:05:17;12;11;
64315;PMS5003;50652;51.482;-0.580;2023-06-22T09:07:45;10;10;
64315;PMS5003;50652;51.482;-0.580;2023-06-22T09:10:12;12;12;
64315;PMS5003;50652;51.482;-0.580;2023-06-22T09:12:44;13;11;
64315;PMS5003;50652;51.482;-0.580;2023-06-22T09:15:11;8;8;
64315;PMS5003;50652;51.482;-0.580;2023-06-22T09:17:40;7;7;
64315;PMS5003;50652;51.482;-0.580;2023-06-22T09:20:08;10;10;
64315;PMS5003;50652;51.482;-0.580;2023-06-22T09:22:36;10;10;
64315;PMS5003;50652;51.482;-0.580;2023-06-22T09:25:04;8;8;
64315;PMS5003;50652;51.482;-0.580;2023-06-22T09:27:31;10;10;
64315;PMS5003;50652;51.482;-0.580;2023-06-22T09:29:59;9;7;
64315;PMS5003;50652;51.482;-0.580;2023-06-22T09:32:26;10;10;
64315;PMS5003;50652;51.482;-0.580;2023-06-22T09:34:53;11;11;
64315;PMS5003;50652;51.482;-0.580;2023-06-22T09:37:20;10;10;
64315;PMS5003;50652;51.482;-0.580;2023-06-22T09:39:48;9;9;
64315;PMS5003;50652;51.482;-0.580;2023-06-22T09:42:16;13;11;
64315;PMS5003;50652;51.482;-0.580;2023-06-22T09:44:43;8;8;
64315;PMS5003;50652;51.482;-0.580;2023-06-22T09:47:10;13;12;
64315;PMS5003;50652;51.482;-0.580;2023-06-22T09:49:37;10;10;
64315;PMS5003;50652;51.482;-0.580;2023-06-22T09:52:04;12;9;
64315;PMS5003;50652;51.482;-0.580;2023-06-22T09:54:32;11;11;
64315;PMS5003;50652;51.482;-0.580;2023-06-22T09:57:00;10;10;
64315;PMS5003;50652;51.482;-0.580;2023-06-22T09:59:27;11;11;
64315;PMS5003;50652;51.482;-0.580;2023-06-22T10:01:55;9;9;
64315;PMS5003;50652;51.482;-0.580;2023-06-22T10:04:22;14;9;
64315;PMS5003;50652;51.482;-0.580;2023-06-22T10:06:49;7;7;
64315;PMS5003;50652;51.482;-0.580;2023-06-22T10:09:16;9;9;
64315;PMS5003;50652;51.482;-0.580;2023-06-22T10:11:44;9;9;
64315;PMS5003;50652;51.482;-0.580;2023-06-22T10:14:10;11;11;
64315;PMS5003;50652;51.482;-0.580;2023-06-22T10:16:37;13;12;
64315;PMS5003;50652;51.482;-0.580;2023-06-22T10:19:04;9;8;
64315;PMS5003;50652;51.482;-0.580;2023-06-22T10:21:31;7;7;
64315;PMS5003;50652;51.482;-0.580;2023-06-22T10:23:58;9;9;
64315;PMS5003;50652;51.482;-0.580;2023-06-22T10:26:25;7;6;
64315;PMS5003;50652;51.482;-0.580;2023-06-22T10:28:52;8;5;
64315;PMS5003;50652;51.482;-0.580;2023-06-22T10:31:19;7;7;
64315;PMS5003;50652;51.482;-0.580;2023-06-22T10:33:47;7;5;
64315;PMS5003;50652;51.482;-0.580;2023-06-22T10:36:15;9;8;
64315;PMS5003;50652;51.482;-0.580;2023-06-22T10:38:42;12;10;
64315;PMS5003;50652;51.482;-0.580;2023-06-22T10:41:09;9;7;
64315;PMS5003;50652;51.482;-0.580;2023-06-22T10:43:36;11;10;
64315;PMS5003;50652;51.482;-0.580;2023-06-22T10:46:03;6;6;
64315;PMS5003;50652;51.482;-0.580;2023-06-22T10:48:30;8;8;
64315;PMS5003;50652;51.482;-0.580;2023-06-22T10:50:56;9;9;
64315;PMS5003;50652;51.482;-0.580;2023-06-22T10:53:23;12;7;
64315;PMS5003;50652;51.482;-0.580;2023-06-22T10:55:50;10;9;
64315;PMS5003;50652;51.482;-0.580;2023-06-22T10:58:17;11;11;
64315;PMS5003;50652;51.482;-0.580;2023-06-22T11:00:45;8;8;
64315;PMS5003;50652;51.482;-0.580;2023-06-22T11:03:11;8;7;
64315;PMS5003;50652;51.482;-0.580;2023-06-22T11:05:38;9;7;
64315;PMS5003;50652;51.482;-0.580;2023-06-22T11:08:05;12;12;
64315;PMS5003;50652;51.482;-0.580;2023-06-22T11:10:32;9;8;
64315;PMS5003;50652;51.482;-0.580;2023-06-22T11:13:05;8;7;
64315;PMS5003;50652;51.482;-0.580;2023-06-22T11:15:32;7;7;
64315;PMS5003;50652;51.482;-0.580;2023-06-22T11:18:04;8;6;
64315;PMS5003;50652;51.482;-0.580;2023-06-22T11:20:36;12;10;
64315;PMS5003;50652;51.482;-0.580;2023-06-22T11:23:03;12;8;
64315;PMS5003;50652;51.482;-0.580;2023-06-22T11:25:31;9;9;
64315;PMS5003;50652;51.482;-0.580;2023-06-22T11:27:58;7;7;
64315;PMS5003;50652;51.482;-0.580;2023-06-22T11:30:25;10;8;
64315;PMS5003;50652;51.482;-0.580;2023-06-22T11:33:00;8;7;
64315;PMS5003;50652;51.482;-0.580;2023-06-22T11:35:27;7;7;
64315;PMS5003;50652;51.482;-0.580;2023-06-22T11:37:53;8;8;
64315;PMS5003;50652;51.482;-0.580;2023-06-22T11:40:20;6;6;
64315;PMS5003;50652;51.482;-0.580;2023-06-22T11:42:47;7;7;
64315;PMS5003;50652;51.482;-0.580;2023-06-22T11:45:14;8;8;
64315;PMS5003;50652;51.482;-0.580;2023-06-22T11:47:45;7;7;
64315;PMS5003;50652;51.482;-0.580;2023-06-22T11:50:13;7;7;
64315;PMS5003;50652;51.482;-0.580;2023-06-22T11:52:40;9;9;
64315;PMS5003;50652;51.482;-0.580;2023-06-22T11:55:07;8;8;
64315;PMS5003;50652;51.482;-0.580;2023-06-22T11:57:35;10;8;
64315;PMS5003;50652;51.482;-0.580;2023-06-22T12:00:04;9;9;
64315;PMS5003;50652;51.482;-0.580;2023-06-22T12:02:32;8;7;
64315;PMS5003;50652;51.482;-0.580;2023-06-22T12:04:59;8;6;
64315;PMS5003;50652;51.482;-0.580;2023-06-22T12:07:25;8;6;
64315;PMS5003;50652;51.482;-0.580;2023-06-22T12:09:52;5;5;
64315;PMS5003;50652;51.482;-0.580;2023-06-22T12:12:20;8;7;
64315;PMS5003;50652;51.482;-0.580;2023-06-22T12:14:46;8;8;
64315;PMS5003;50652;51.482;-0.580;2023-06-22T12:17:14;8;8;
64315;PMS5003;50652;51.482;-0.580;2023-06-22T12:19:40;5;5;
64315;PMS5003;50652;51.482;-0.580;2023-06-22T12:22:08;9;7;
64315;PMS5003;50652;51.482;-0.580;2023-06-22T12:24:34;6;6;
64315;PMS5003;50652;51.482;-0.580;2023-06-22T12:27:01;8;7;
64315;PMS5003;50652;51.482;-0.580;2023-06-22T12:29:29;8;8;
64315;PMS5003;50652;51.482;-0.580;2023-06-22T12:31:56;8;6;
64315;PMS5003;50652;51.482;-0.580;2023-06-22T12:34:23;8;7;
64315;PMS5003;50652;51.482;-0.580;2023-06-22T12:36:50;11;8;
64315;PMS5003;50652;51.482;-0.580;2023-06-22T12:39:17;7;7;
64315;PMS5003;50652;51.482;-0.580;2023-06-22T12:41:44;6;6;
64315;PMS5003;50652;51.482;-0.580;2023-06-22T12:44:11;11;10;
64315;PMS5003;50652;51.482;-0.580;2023-06-22T12:46:38;8;8;
64315;PMS5003;50652;51.482;-0.580;2023-06-22T12:49:05;8;8;
64315;PMS5003;50652;51.482;-0.580;2023-06-22T12:51:31;11;9;
64315;PMS5003;50652;51.482;-0.580;2023-06-22T12:53:58;7;7;
64315;PMS5003;50652;51.482;-0.580;2023-06-22T12:56:25;7;7;
64315;PMS5003;50652;51.482;-0.580;2023-06-22T12:58:52;7;7;
64315;PMS5003;50652;51.482;-0.580;2023-06-22T13:01:19;8;6;
64315;PMS5003;50652;51.482;-0.580;2023-06-22T13:03:46;8;7;
64315;PMS5003;50652;51.482;-0.580;2023-06-22T13:06:12;8;8;
64315;PMS5003;50652;51.482;-0.580;2023-06-22T13:08:39;6;6;
64315;PMS5003;50652;51.482;-0.580;2023-06-22T13:11:06;6;6;
64315;PMS5003;50652;51.482;-0.580;2023-06-22T13:13:34;7;7;
64315;PMS5003;50652;51.482;-0.580;2023-06-22T13:16:06;6;6;
64315;PMS5003;50652;51.482;-0.580;2023-06-22T13:18:34;5;5;
64315;PMS5003;50652;51.482;-0.580;2023-06-22T13:21:01;9;7;
64315;PMS5003;50652;51.482;-0.580;2023-06-22T13:23:29;6;6;
64315;PMS5003;50652;51.482;-0.580;2023-06-22T13:25:57;7;7;
64315;PMS5003;50652;51.482;-0.580;2023-06-22T13:28:24;5;5;
64315;PMS5003;50652;51.482;-0.580;2023-06-22T13:30:51;5;5;
64315;PMS5003;50652;51.482;-0.580;2023-06-22T13:33:22;8;6;
64315;PMS5003;50652;51.482;-0.580;2023-06-22T13:35:49;6;6;
64315;PMS5003;50652;51.482;-0.580;2023-06-22T13:38:17;6;6;
64315;PMS5003;50652;51.482;-0.580;2023-06-22T13:40:44;4;4;
64315;PMS5003;50652;51.482;-0.580;2023-06-22T13:43:11;6;6;
64315;PMS5003;50652;51.482;-0.580;2023-06-22T13:45:38;4;4;
64315;PMS5003;50652;51.482;-0.580;2023-06-22T13:48:05;7;7;
64315;PMS5003;50652;51.482;-0.580;2023-06-22T13:50:32;4;4;
64315;PMS5003;50652;51.482;-0.580;2023-06-22T13:52:59;4;4;
64315;PMS5003;50652;51.482;-0.580;2023-06-22T13:55:26;3;3;
64315;PMS5003;50652;51.482;-0.580;2023-06-22T13:57:52;5;5;
64315;PMS5003;50652;51.482;-0.580;2023-06-22T14:00:20;4;4;
64315;PMS5003;50652;51.482;-0.580;2023-06-22T14:02:47;8;6;
64315;PMS5003;50652;51.482;-0.580;2023-06-22T14:05:14;6;6;
64315;PMS5003;50652;51.482;-0.580;2023-06-22T14:07:42;4;4;
64315;PMS5003;50652;51.482;-0.580;2023-06-22T14:10:09;5;5;
64315;PMS5003;50652;51.482;-0.580;2023-06-22T14:12:36;7;6;
64315;PMS5003;50652;51.482;-0.580;2023-06-22T14:15:04;5;5;
64315;PMS5003;50652;51.482;-0.580;2023-06-22T14:17:32;6;6;
64315;PMS5003;50652;51.482;-0.580;2023-06-22T14:19:59;6;6;
64315;PMS5003;50652;51.482;-0.580;2023-06-22T14:22:26;6;6;
64315;PMS5003;50652;51.482;-0.580;2023-06-22T14:24:53;6;5;
64315;PMS5003;50652;51.482;-0.580;2023-06-22T14:27:20;5;5;
64315;PMS5003;50652;51.482;-0.580;2023-06-22T14:29:48;7;7;
64315;PMS5003;50652;51.482;-0.580;2023-06-22T14:32:15;5;5;
64315;PMS5003;50652;51.482;-0.580;2023-06-22T14:34:42;4;4;
64315;PMS5003;50652;51.482;-0.580;2023-06-22T14:37:09;7;7;
64315;PMS5003;50652;51.482;-0.580;2023-06-22T14:39:37;4;4;
64315;PMS5003;50652;51.482;-0.580;2023-06-22T14:42:04;9;6;
64315;PMS5003;50652;51.482;-0.580;2023-06-22T14:44:31;7;7;
64315;PMS5003;50652;51.482;-0.580;2023-06-22T14:46:59;6;6;
64315;PMS5003;50652;51.482;-0.580;2023-06-22T14:49:26;6;6;
64315;PMS5003;50652;51.482;-0.580;2023-06-22T14:51:53;5;5;
64315;PMS5003;50652;51.482;-0.580;2023-06-22T14:54:21;5;5;
64315;PMS5003;50652;51.482;-0.580;2023-06-22T14:56:48;5;5;
64315;PMS5003;50652;51.482;-0.580;2023-06-22T14:59:17;5;5;
64315;PMS5003;50652;51.482;-0.580;2023-06-22T15:01:43;6;6;
64315;PMS5003;50652;51.482;-0.580;2023-06-22T15:04:10;6;4;
64315;PMS5003;50652;51.482;-0.580;2023-06-22T15:06:37;3;3;
64315;PMS5003;50652;51.482;-0.580;2023-06-22T15:09:05;6;6;
64315;PMS5003;50652;51.482;-0.580;2023-06-22T15:11:32;5;5;
64315;PMS5003;50652;51.482;-0.580;2023-06-22T15:13:59;7;7;
64315;PMS5003;50652;51.482;-0.580;2023-06-22T15:16:26;6;4;
64315;PMS5003;50652;51.482;-0.580;2023-06-22T15:18:53;5;5;
64315;PMS5003;50652;51.482;-0.580;2023-06-22T15:21:20;9;6;
64315;PMS5003;50652;51.482;-0.580;2023-06-22T15:23:47;6;4;
64315;PMS5003;50652;51.482;-0.580;2023-06-22T15:26:15;7;7;
64315;PMS5003;50652;51.482;-0.580;2023-06-22T15:28:42;4;4;
64315;PMS5003;50652;51.482;-0.580;2023-06-22T15:31:09;4;4;
64315;PMS5003;50652;51.482;-0.580;2023-06-22T15:33:37;5;5;
64315;PMS5003;50652;51.482;-0.580;2023-06-22T15:36:04;11;6;
64315;PMS5003;50652;51.482;-0.580;2023-06-22T15:38:31;4;3;
64315;PMS5003;50652;51.482;-0.580;2023-06-22T15:40:58;7;7;
64315;PMS5003;50652;51.482;-0.580;2023-06-22T15:43:25;8;8;
64315;PMS5003;50652;51.482;-0.580;2023-06-22T15:45:52;7;7;
64315;PMS5003;50652;51.482;-0.580;2023-06-22T15:48:19;5;5;
64315;PMS5003;50652;51.482;-0.580;2023-06-22T15:50:46;6;6;
64315;PMS5003;50652;51.482;-0.580;2023-06-22T15:53:14;6;6;
64315;PMS5003;50652;51.482;-0.580;2023-06-22T15:55:41;8;6;
64315;PMS5003;50652;51.482;-0.580;2023-06-22T15:58:08;6;6;
64315;PMS5003;50652;51.482;-0.580;2023-06-22T16:00:34;7;5;
64315;PMS5003;50652;51.482;-0.580;2023-06-22T16:03:01;6;6;
64315;PMS5003;50652;51.482;-0.580;2023-06-22T16:05:28;7;7;
64315;PMS5003;50652;51.482;-0.580;2023-06-22T16:07:55;7;7;
64315;PMS5003;50652;51.482;-0.580;2023-06-22T16:10:22;5;5;
64315;PMS5003;50652;51.482;-0.580;2023-06-22T16:12:50;10;8;
64315;PMS5003;50652;51.482;-0.580;2023-06-22T16:15:17;8;5;